sensor_id;sensor_type;location;lat;lon;timestamp;temperature;humidity
4103;DHT22;2065;49.790;9.620;2023-02-15T00:01:25;7.70;59.70
4103;DHT22;2065;49.790;9.620;2023-02-15T00:03:52;7.80;59.80
4103;DHT22;2065;49.790;9.620;2023-02-15T00:06:21;7.80;59.80
4103;DHT22;2065;49.790;9.620;2023-02-15T00:08:49;7.60;60.10
4103;DHT22;2065;49.790;9.620;2023-02-15T00:11:17;7.50;60.20
4103;DHT22;2065;49.790;9.620;2023-02-15T00:14:06;7.50;60.50
4103;DHT22;2065;49.790;9.620;2023-02-15T00:16:33;7.70;60.00
4103;DHT22;2065;49.790;9.620;2023-02-15T00:19:00;7.80;59.90
4103;DHT22;2065;49.790;9.620;2023-02-15T00:21:30;7.90;59.70
4103;DHT22;2065;49.790;9.620;2023-02-15T00:23:58;7.90;59.60
4103;DHT22;2065;49.790;9.620;2023-02-15T00:26:25;8.00;59.50
4103;DHT22;2065;49.790;9.620;2023-02-15T00:28:53;8.20;59.10
4103;DHT22;2065;49.790;9.620;2023-02-15T00:31:20;8.10;59.20
4103;DHT22;2065;49.790;9.620;2023-02-15T00:33:47;8.00;59.40
4103;DHT22;2065;49.790;9.620;2023-02-15T00:36:14;8.10;59.30
4103;DHT22;2065;49.790;9.620;2023-02-15T00:38:43;8.00;59.00
4103;DHT22;2065;49.790;9.620;2023-02-15T00:41:10;7.60;59.70
4103;DHT22;2065;49.790;9.620;2023-02-15T00:43:37;7.60;60.20
4103;DHT22;2065;49.790;9.620;2023-02-15T00:46:05;7.40;60.70
4103;DHT22;2065;49.790;9.620;2023-02-15T00:48:32;7.60;60.50
4103;DHT22;2065;49.790;9.620;2023-02-15T00:51:00;7.40;60.00
4103;DHT22;2065;49.790;9.620;2023-02-15T00:53:28;7.40;60.80
4103;DHT22;2065;49.790;9.620;2023-02-15T00:55:57;7.70;60.30
4103;DHT22;2065;49.790;9.620;2023-02-15T00:58:25;7.90;59.70
4103;DHT22;2065;49.790;9.620;2023-02-15T01:00:52;8.00;59.50
4103;DHT22;2065;49.790;9.620;2023-02-15T01:03:20;8.00;59.40
4103;DHT22;2065;49.790;9.620;2023-02-15T01:05:48;8.00;59.00
4103;DHT22;2065;49.790;9.620;2023-02-15T01:08:15;8.00;59.00
4103;DHT22;2065;49.790;9.620;2023-02-15T01:10:42;8.00;59.20
4103;DHT22;2065;49.790;9.620;2023-02-15T01:13:15;7.90;59.00
4103;DHT22;2065;49.790;9.620;2023-02-15T01:15:42;7.90;58.90
4103;DHT22;2065;49.790;9.620;2023-02-15T01:18:09;8.10;58.80
4103;DHT22;2065;49.790;9.620;2023-02-15T01:20:38;8.20;58.30
4103;DHT22;2065;49.790;9.620;2023-02-15T01:23:07;8.20;58.10
4103;DHT22;2065;49.790;9.620;2023-02-15T01:25:35;8.00;58.70
4103;DHT22;2065;49.790;9.620;2023-02-15T01:28:03;7.90;58.80
4103;DHT22;2065;49.790;9.620;2023-02-15T01:30:33;8.00;59.00
4103;DHT22;2065;49.790;9.620;2023-02-15T01:32:59;7.80;58.80
4103;DHT22;2065;49.790;9.620;2023-02-15T01:35:30;7.50;59.30
4103;DHT22;2065;49.790;9.620;2023-02-15T01:37:57;7.50;59.90
4103;DHT22;2065;49.790;9.620;2023-02-15T01:40:25;7.50;60.00
4103;DHT22;2065;49.790;9.620;2023-02-15T01:42:52;7.60;60.10
4103;DHT22;2065;49.790;9.620;2023-02-15T01:45:22;7.80;59.60
4103;DHT22;2065;49.790;9.620;2023-02-15T01:47:54;7.70;59.50
4103;DHT22;2065;49.790;9.620;2023-02-15T01:50:27;7.80;59.70
4103;DHT22;2065;49.790;9.620;2023-02-15T01:52:57;7.90;58.90
4103;DHT22;2065;49.790;9.620;2023-02-15T01:55:29;8.00;58.50
4103;DHT22;2065;49.790;9.620;2023-02-15T01:57:57;7.90;58.80
4103;DHT22;2065;49.790;9.620;2023-02-15T02:00:24;8.00;58.90
4103;DHT22;2065;49.790;9.620;2023-02-15T02:02:55;7.70;59.30
4103;DHT22;2065;49.790;9.620;2023-02-15T02:05:25;7.80;59.50
4103;DHT22;2065;49.790;9.620;2023-02-15T02:07:54;7.50;60.00
4103;DHT22;2065;49.790;9.620;2023-02-15T02:10:23;7.60;60.70
4103;DHT22;2065;49.790;9.620;2023-02-15T02:12:52;7.70;59.80
4103;DHT22;2065;49.790;9.620;2023-02-15T02:15:23;7.40;59.80
4103;DHT22;2065;49.790;9.620;2023-02-15T02:18:03;7.20;60.20
4103;DHT22;2065;49.790;9.620;2023-02-15T02:23:36;7.50;60.40
4103;DHT22;2065;49.790;9.620;2023-02-15T02:26:37;7.50;60.20
4103;DHT22;2065;49.790;9.620;2023-02-15T02:32:47;7.40;60.50
4103;DHT22;2065;49.790;9.620;2023-02-15T02:35:22;7.40;60.40
4103;DHT22;2065;49.790;9.620;2023-02-15T02:38:00;7.40;60.50
4103;DHT22;2065;49.790;9.620;2023-02-15T02:40:36;7.30;60.60
4103;DHT22;2065;49.790;9.620;2023-02-15T02:43:12;7.30;60.60
4103;DHT22;2065;49.790;9.620;2023-02-15T02:45:47;7.40;60.50
4103;DHT22;2065;49.790;9.620;2023-02-15T02:48:20;7.30;60.50
4103;DHT22;2065;49.790;9.620;2023-02-15T02:50:48;7.20;60.90
4103;DHT22;2065;49.790;9.620;2023-02-15T02:53:15;7.30;60.60
4103;DHT22;2065;49.790;9.620;2023-02-15T02:55:46;7.40;60.80
4103;DHT22;2065;49.790;9.620;2023-02-15T02:58:16;7.50;60.20
4103;DHT22;2065;49.790;9.620;2023-02-15T03:00:46;7.50;59.80
4103;DHT22;2065;49.790;9.620;2023-02-15T03:03:21;7.50;60.00
4103;DHT22;2065;49.790;9.620;2023-02-15T03:05:54;7.40;60.30
4103;DHT22;2065;49.790;9.620;2023-02-15T03:08:24;7.30;60.70
4103;DHT22;2065;49.790;9.620;2023-02-15T03:10:56;7.30;60.90
4103;DHT22;2065;49.790;9.620;2023-02-15T03:13:25;7.40;61.00
4103;DHT22;2065;49.790;9.620;2023-02-15T03:15:53;7.50;61.00
4103;DHT22;2065;49.790;9.620;2023-02-15T03:18:42;7.60;60.30
4103;DHT22;2065;49.790;9.620;2023-02-15T03:21:11;7.60;60.30
4103;DHT22;2065;49.790;9.620;2023-02-15T03:23:51;7.70;60.30
4103;DHT22;2065;49.790;9.620;2023-02-15T03:26:21;7.60;59.90
4103;DHT22;2065;49.790;9.620;2023-02-15T03:28:52;7.70;60.00
4103;DHT22;2065;49.790;9.620;2023-02-15T03:31:24;7.60;59.60
4103;DHT22;2065;49.790;9.620;2023-02-15T03:34:00;7.40;60.50
4103;DHT22;2065;49.790;9.620;2023-02-15T03:36:34;7.40;60.80
4103;DHT22;2065;49.790;9.620;2023-02-15T03:39:10;7.60;60.40
4103;DHT22;2065;49.790;9.620;2023-02-15T03:41:44;7.80;59.80
4103;DHT22;2065;49.790;9.620;2023-02-15T03:44:16;7.70;59.50
4103;DHT22;2065;49.790;9.620;2023-02-15T03:46:49;7.70;59.70
4103;DHT22;2065;49.790;9.620;2023-02-15T03:49:22;7.60;59.60
4103;DHT22;2065;49.790;9.620;2023-02-15T03:51:53;7.50;59.40
4103;DHT22;2065;49.790;9.620;2023-02-15T03:54:23;7.20;60.40
4103;DHT22;2065;49.790;9.620;2023-02-15T03:57:12;7.30;60.70
4103;DHT22;2065;49.790;9.620;2023-02-15T03:59:57;7.50;60.00
4103;DHT22;2065;49.790;9.620;2023-02-15T04:02:58;7.40;59.60
4103;DHT22;2065;49.790;9.620;2023-02-15T04:05:29;7.50;59.60
4103;DHT22;2065;49.790;9.620;2023-02-15T04:07:56;7.50;59.50
4103;DHT22;2065;49.790;9.620;2023-02-15T04:10:23;7.70;59.20
4103;DHT22;2065;49.790;9.620;2023-02-15T04:13:07;7.70;58.70
4103;DHT22;2065;49.790;9.620;2023-02-15T04:15:34;7.70;58.40
4103;DHT22;2065;49.790;9.620;2023-02-15T04:18:18;7.50;58.40
4103;DHT22;2065;49.790;9.620;2023-02-15T04:20:47;7.50;58.80
4103;DHT22;2065;49.790;9.620;2023-02-15T04:23:31;7.40;58.50
4103;DHT22;2065;49.790;9.620;2023-02-15T04:26:16;7.40;58.90
4103;DHT22;2065;49.790;9.620;2023-02-15T04:28:43;7.30;58.90
4103;DHT22;2065;49.790;9.620;2023-02-15T04:31:10;6.70;59.80
4103;DHT22;2065;49.790;9.620;2023-02-15T04:33:37;6.40;61.10
4103;DHT22;2065;49.790;9.620;2023-02-15T04:36:05;6.50;61.20
4103;DHT22;2065;49.790;9.620;2023-02-15T04:38:32;6.70;60.70
4103;DHT22;2065;49.790;9.620;2023-02-15T04:40:59;6.60;60.10
4103;DHT22;2065;49.790;9.620;2023-02-15T04:43:28;6.80;60.20
4103;DHT22;2065;49.790;9.620;2023-02-15T04:45:54;6.90;59.50
4103;DHT22;2065;49.790;9.620;2023-02-15T04:48:21;6.80;59.50
4103;DHT22;2065;49.790;9.620;2023-02-15T04:50:48;6.60;59.90
4103;DHT22;2065;49.790;9.620;2023-02-15T04:53:17;6.50;60.30
4103;DHT22;2065;49.790;9.620;2023-02-15T04:55:44;6.50;60.10
4103;DHT22;2065;49.790;9.620;2023-02-15T04:58:10;6.60;60.30
4103;DHT22;2065;49.790;9.620;2023-02-15T05:00:37;6.70;60.00
4103;DHT22;2065;49.790;9.620;2023-02-15T05:03:04;6.80;59.80
4103;DHT22;2065;49.790;9.620;2023-02-15T05:05:31;6.50;60.00
4103;DHT22;2065;49.790;9.620;2023-02-15T05:07:58;6.20;60.80
4103;DHT22;2065;49.790;9.620;2023-02-15T05:10:27;6.10;61.40
4103;DHT22;2065;49.790;9.620;2023-02-15T05:12:54;6.20;61.70
4103;DHT22;2065;49.790;9.620;2023-02-15T05:15:21;6.10;61.30
4103;DHT22;2065;49.790;9.620;2023-02-15T05:17:48;5.90;61.80
4103;DHT22;2065;49.790;9.620;2023-02-15T05:20:15;5.90;62.10
4103;DHT22;2065;49.790;9.620;2023-02-15T05:22:42;5.90;62.00
4103;DHT22;2065;49.790;9.620;2023-02-15T05:25:09;6.30;61.70
4103;DHT22;2065;49.790;9.620;2023-02-15T05:27:55;6.30;60.60
4103;DHT22;2065;49.790;9.620;2023-02-15T05:30:39;6.40;60.80
4103;DHT22;2065;49.790;9.620;2023-02-15T05:33:06;6.80;60.00
4103;DHT22;2065;49.790;9.620;2023-02-15T05:35:34;6.80;59.30
4103;DHT22;2065;49.790;9.620;2023-02-15T05:38:01;6.90;59.20
4103;DHT22;2065;49.790;9.620;2023-02-15T05:40:28;7.10;58.80
4103;DHT22;2065;49.790;9.620;2023-02-15T05:42:57;7.00;57.90
4103;DHT22;2065;49.790;9.620;2023-02-15T05:45:24;6.50;58.70
4103;DHT22;2065;49.790;9.620;2023-02-15T05:47:51;6.60;59.40
4103;DHT22;2065;49.790;9.620;2023-02-15T05:50:18;6.60;59.50
4103;DHT22;2065;49.790;9.620;2023-02-15T05:52:46;6.60;59.00
4103;DHT22;2065;49.790;9.620;2023-02-15T05:55:13;6.80;58.80
4103;DHT22;2065;49.790;9.620;2023-02-15T05:57:40;6.40;59.00
4103;DHT22;2065;49.790;9.620;2023-02-15T06:00:10;6.30;59.60
4103;DHT22;2065;49.790;9.620;2023-02-15T06:02:38;6.50;59.60
4103;DHT22;2065;49.790;9.620;2023-02-15T06:05:05;6.60;59.10
4103;DHT22;2065;49.790;9.620;2023-02-15T06:07:32;6.40;59.40
4103;DHT22;2065;49.790;9.620;2023-02-15T06:09:59;6.50;59.50
4103;DHT22;2065;49.790;9.620;2023-02-15T06:12:26;6.70;59.00
4103;DHT22;2065;49.790;9.620;2023-02-15T06:14:53;6.70;58.80
4103;DHT22;2065;49.790;9.620;2023-02-15T06:17:21;6.50;58.60
4103;DHT22;2065;49.790;9.620;2023-02-15T06:19:48;6.60;59.00
4103;DHT22;2065;49.790;9.620;2023-02-15T06:22:15;6.80;58.60
4103;DHT22;2065;49.790;9.620;2023-02-15T06:24:42;6.50;58.60
4103;DHT22;2065;49.790;9.620;2023-02-15T06:27:09;6.60;58.80
4103;DHT22;2065;49.790;9.620;2023-02-15T06:29:37;6.60;58.20
4103;DHT22;2065;49.790;9.620;2023-02-15T06:32:04;6.50;58.30
4103;DHT22;2065;49.790;9.620;2023-02-15T06:34:33;6.20;58.90
4103;DHT22;2065;49.790;9.620;2023-02-15T06:37:00;5.90;59.80
4103;DHT22;2065;49.790;9.620;2023-02-15T06:39:27;5.70;60.10
4103;DHT22;2065;49.790;9.620;2023-02-15T06:41:54;5.70;60.20
4103;DHT22;2065;49.790;9.620;2023-02-15T06:44:20;5.90;60.40
4103;DHT22;2065;49.790;9.620;2023-02-15T06:46:47;6.00;59.90
4103;DHT22;2065;49.790;9.620;2023-02-15T06:49:14;6.00;59.90
4103;DHT22;2065;49.790;9.620;2023-02-15T06:51:43;6.20;58.90
4103;DHT22;2065;49.790;9.620;2023-02-15T06:54:10;6.20;58.40
4103;DHT22;2065;49.790;9.620;2023-02-15T06:56:37;6.00;58.60
4103;DHT22;2065;49.790;9.620;2023-02-15T06:59:04;5.90;58.60
4103;DHT22;2065;49.790;9.620;2023-02-15T07:01:31;5.70;59.00
4103;DHT22;2065;49.790;9.620;2023-02-15T07:03:58;5.70;59.30
4103;DHT22;2065;49.790;9.620;2023-02-15T07:06:25;5.80;59.10
4103;DHT22;2065;49.790;9.620;2023-02-15T07:08:53;5.60;59.70
4103;DHT22;2065;49.790;9.620;2023-02-15T07:11:20;5.50;59.90
4103;DHT22;2065;49.790;9.620;2023-02-15T07:14:05;5.60;60.10
4103;DHT22;2065;49.790;9.620;2023-02-15T07:16:32;5.60;60.10
4103;DHT22;2065;49.790;9.620;2023-02-15T07:18:59;5.60;60.10
4103;DHT22;2065;49.790;9.620;2023-02-15T07:21:27;5.60;60.20
4103;DHT22;2065;49.790;9.620;2023-02-15T07:23:57;5.70;59.90
4103;DHT22;2065;49.790;9.620;2023-02-15T07:26:24;5.70;59.90
4103;DHT22;2065;49.790;9.620;2023-02-15T07:28:51;5.60;60.10
4103;DHT22;2065;49.790;9.620;2023-02-15T07:31:18;5.70;59.90
4103;DHT22;2065;49.790;9.620;2023-02-15T07:33:45;5.80;59.60
4103;DHT22;2065;49.790;9.620;2023-02-15T07:36:12;5.90;59.60
4103;DHT22;2065;49.790;9.620;2023-02-15T07:38:41;6.10;59.40
4103;DHT22;2065;49.790;9.620;2023-02-15T07:41:11;6.00;59.40
4103;DHT22;2065;49.790;9.620;2023-02-15T07:43:40;6.20;59.20
4103;DHT22;2065;49.790;9.620;2023-02-15T07:46:09;6.20;58.90
4103;DHT22;2065;49.790;9.620;2023-02-15T07:48:37;6.40;59.00
4103;DHT22;2065;49.790;9.620;2023-02-15T07:51:06;6.50;58.30
4103;DHT22;2065;49.790;9.620;2023-02-15T07:53:33;5.90;58.80
4103;DHT22;2065;49.790;9.620;2023-02-15T07:56:01;5.50;60.00
4103;DHT22;2065;49.790;9.620;2023-02-15T07:58:29;5.50;60.80
4103;DHT22;2065;49.790;9.620;2023-02-15T08:01:10;5.80;60.40
4103;DHT22;2065;49.790;9.620;2023-02-15T08:03:37;6.10;59.80
4103;DHT22;2065;49.790;9.620;2023-02-15T08:06:04;6.00;58.90
4103;DHT22;2065;49.790;9.620;2023-02-15T08:08:33;6.00;59.40
4103;DHT22;2065;49.790;9.620;2023-02-15T08:11:02;6.00;59.70
4103;DHT22;2065;49.790;9.620;2023-02-15T08:13:49;5.90;59.70
4103;DHT22;2065;49.790;9.620;2023-02-15T08:16:24;5.90;59.60
4103;DHT22;2065;49.790;9.620;2023-02-15T08:18:52;5.70;60.10
4103;DHT22;2065;49.790;9.620;2023-02-15T08:21:19;5.50;60.50
4103;DHT22;2065;49.790;9.620;2023-02-15T08:23:46;5.40;60.80
4103;DHT22;2065;49.790;9.620;2023-02-15T08:26:14;5.60;60.60
4103;DHT22;2065;49.790;9.620;2023-02-15T08:28:42;5.80;60.30
4103;DHT22;2065;49.790;9.620;2023-02-15T08:31:12;5.80;59.70
4103;DHT22;2065;49.790;9.620;2023-02-15T08:33:40;5.60;59.90
4103;DHT22;2065;49.790;9.620;2023-02-15T08:36:10;5.60;60.60
4103;DHT22;2065;49.790;9.620;2023-02-15T08:38:37;5.50;60.00
4103;DHT22;2065;49.790;9.620;2023-02-15T08:41:13;5.20;60.80
4103;DHT22;2065;49.790;9.620;2023-02-15T08:43:40;5.30;61.50
4103;DHT22;2065;49.790;9.620;2023-02-15T08:46:09;5.50;61.10
4103;DHT22;2065;49.790;9.620;2023-02-15T08:48:36;5.50;60.40
4103;DHT22;2065;49.790;9.620;2023-02-15T08:51:08;5.60;59.70
4103;DHT22;2065;49.790;9.620;2023-02-15T08:53:38;5.30;60.40
4103;DHT22;2065;49.790;9.620;2023-02-15T08:56:06;5.60;60.60
4103;DHT22;2065;49.790;9.620;2023-02-15T08:58:33;6.00;60.00
4103;DHT22;2065;49.790;9.620;2023-02-15T09:01:00;6.20;58.70
4103;DHT22;2065;49.790;9.620;2023-02-15T09:03:29;6.10;58.90
4103;DHT22;2065;49.790;9.620;2023-02-15T09:05:58;6.10;58.50
4103;DHT22;2065;49.790;9.620;2023-02-15T09:08:26;5.90;58.50
4103;DHT22;2065;49.790;9.620;2023-02-15T09:10:53;6.00;58.70
4103;DHT22;2065;49.790;9.620;2023-02-15T09:13:21;6.20;58.10
4103;DHT22;2065;49.790;9.620;2023-02-15T09:15:47;6.20;57.70
4103;DHT22;2065;49.790;9.620;2023-02-15T09:18:14;6.40;57.50
4103;DHT22;2065;49.790;9.620;2023-02-15T09:20:44;6.20;56.90
4103;DHT22;2065;49.790;9.620;2023-02-15T09:23:11;6.00;58.30
4103;DHT22;2065;49.790;9.620;2023-02-15T09:25:39;6.00;58.70
4103;DHT22;2065;49.790;9.620;2023-02-15T09:28:08;6.40;58.00
4103;DHT22;2065;49.790;9.620;2023-02-15T09:30:35;6.70;57.50
4103;DHT22;2065;49.790;9.620;2023-02-15T09:33:02;6.70;56.80
4103;DHT22;2065;49.790;9.620;2023-02-15T09:35:29;6.40;56.80
4103;DHT22;2065;49.790;9.620;2023-02-15T09:37:57;6.40;57.20
4103;DHT22;2065;49.790;9.620;2023-02-15T09:40:24;6.40;57.80
4103;DHT22;2065;49.790;9.620;2023-02-15T09:43:05;6.50;57.60
4103;DHT22;2065;49.790;9.620;2023-02-15T09:45:46;6.40;56.90
4103;DHT22;2065;49.790;9.620;2023-02-15T09:48:35;6.30;57.30
4103;DHT22;2065;49.790;9.620;2023-02-15T09:51:43;6.40;57.40
4103;DHT22;2065;49.790;9.620;2023-02-15T09:54:30;6.00;58.10
4103;DHT22;2065;49.790;9.620;2023-02-15T09:57:05;6.00;58.60
4103;DHT22;2065;49.790;9.620;2023-02-15T09:59:39;5.70;58.70
4103;DHT22;2065;49.790;9.620;2023-02-15T10:02:21;5.70;59.50
4103;DHT22;2065;49.790;9.620;2023-02-15T10:04:59;5.80;59.60
4103;DHT22;2065;49.790;9.620;2023-02-15T10:07:42;5.70;59.00
4103;DHT22;2065;49.790;9.620;2023-02-15T10:10:21;5.90;59.40
4103;DHT22;2065;49.790;9.620;2023-02-15T10:13:02;6.20;58.70
4103;DHT22;2065;49.790;9.620;2023-02-15T10:15:42;6.30;58.20
4103;DHT22;2065;49.790;9.620;2023-02-15T10:18:33;6.30;57.90
4103;DHT22;2065;49.790;9.620;2023-02-15T10:21:09;5.90;58.60
4103;DHT22;2065;49.790;9.620;2023-02-15T10:23:52;6.00;59.60
4103;DHT22;2065;49.790;9.620;2023-02-15T10:26:31;6.40;59.10
4103;DHT22;2065;49.790;9.620;2023-02-15T10:29:05;6.60;58.40
4103;DHT22;2065;49.790;9.620;2023-02-15T10:31:37;6.90;57.60
4103;DHT22;2065;49.790;9.620;2023-02-15T10:34:14;6.80;57.20
4103;DHT22;2065;49.790;9.620;2023-02-15T10:37:01;6.60;57.40
4103;DHT22;2065;49.790;9.620;2023-02-15T10:39:40;6.60;57.50
4103;DHT22;2065;49.790;9.620;2023-02-15T10:42:20;6.60;58.10
4103;DHT22;2065;49.790;9.620;2023-02-15T10:44:59;6.70;57.30
4103;DHT22;2065;49.790;9.620;2023-02-15T10:47:39;6.60;57.30
4103;DHT22;2065;49.790;9.620;2023-02-15T10:50:20;6.40;58.00
4103;DHT22;2065;49.790;9.620;2023-02-15T10:52:58;6.40;58.10
4103;DHT22;2065;49.790;9.620;2023-02-15T10:55:40;6.50;58.10
4103;DHT22;2065;49.790;9.620;2023-02-15T10:58:17;6.30;58.90
4103;DHT22;2065;49.790;9.620;2023-02-15T11:00:47;6.40;58.60
4103;DHT22;2065;49.790;9.620;2023-02-15T11:03:33;6.60;58.40
4103;DHT22;2065;49.790;9.620;2023-02-15T11:06:05;6.60;58.00
4103;DHT22;2065;49.790;9.620;2023-02-15T11:08:35;6.50;58.20
4103;DHT22;2065;49.790;9.620;2023-02-15T11:11:06;6.50;58.20
4103;DHT22;2065;49.790;9.620;2023-02-15T11:13:39;6.40;58.20
4103;DHT22;2065;49.790;9.620;2023-02-15T11:16:13;6.40;58.70
4103;DHT22;2065;49.790;9.620;2023-02-15T11:18:44;6.70;58.50
4103;DHT22;2065;49.790;9.620;2023-02-15T11:21:18;6.90;57.30
4103;DHT22;2065;49.790;9.620;2023-02-15T11:23:47;6.50;57.70
4103;DHT22;2065;49.790;9.620;2023-02-15T11:26:18;6.50;58.40
4103;DHT22;2065;49.790;9.620;2023-02-15T11:28:52;6.30;58.30
4103;DHT22;2065;49.790;9.620;2023-02-15T11:31:22;6.60;58.80
4103;DHT22;2065;49.790;9.620;2023-02-15T11:33:52;6.60;58.20
4103;DHT22;2065;49.790;9.620;2023-02-15T11:36:22;6.70;58.60
4103;DHT22;2065;49.790;9.620;2023-02-15T11:38:56;6.80;58.50
4103;DHT22;2065;49.790;9.620;2023-02-15T11:41:28;7.20;58.10
4103;DHT22;2065;49.790;9.620;2023-02-15T11:44:00;7.40;57.30
4103;DHT22;2065;49.790;9.620;2023-02-15T11:46:30;7.50;56.30
4103;DHT22;2065;49.790;9.620;2023-02-15T11:48:57;7.20;56.80
4103;DHT22;2065;49.790;9.620;2023-02-15T11:51:25;7.20;56.80
4103;DHT22;2065;49.790;9.620;2023-02-15T11:53:54;7.00;56.90
4103;DHT22;2065;49.790;9.620;2023-02-15T11:56:23;6.50;58.00
4103;DHT22;2065;49.790;9.620;2023-02-15T11:58:54;6.50;58.50
4103;DHT22;2065;49.790;9.620;2023-02-15T12:01:28;6.80;58.50
4103;DHT22;2065;49.790;9.620;2023-02-15T12:03:59;6.90;57.40
4103;DHT22;2065;49.790;9.620;2023-02-15T12:06:29;6.50;58.40
4103;DHT22;2065;49.790;9.620;2023-02-15T12:09:02;6.30;59.00
4103;DHT22;2065;49.790;9.620;2023-02-15T12:11:35;6.30;60.00
4103;DHT22;2065;49.790;9.620;2023-02-15T12:14:03;6.60;59.90
4103;DHT22;2065;49.790;9.620;2023-02-15T12:16:40;6.60;58.40
4103;DHT22;2065;49.790;9.620;2023-02-15T12:19:19;6.80;58.50
4103;DHT22;2065;49.790;9.620;2023-02-15T12:21:51;6.80;57.90
4103;DHT22;2065;49.790;9.620;2023-02-15T12:24:20;6.50;58.80
4103;DHT22;2065;49.790;9.620;2023-02-15T12:26:57;6.80;58.70
4103;DHT22;2065;49.790;9.620;2023-02-15T12:29:28;7.00;58.30
4103;DHT22;2065;49.790;9.620;2023-02-15T12:31:58;7.30;57.60
4103;DHT22;2065;49.790;9.620;2023-02-15T12:34:29;7.50;56.70
4103;DHT22;2065;49.790;9.620;2023-02-15T12:36:59;7.40;57.10
4103;DHT22;2065;49.790;9.620;2023-02-15T12:39:28;7.60;57.40
4103;DHT22;2065;49.790;9.620;2023-02-15T12:42:02;7.50;55.80
4103;DHT22;2065;49.790;9.620;2023-02-15T12:44:31;7.40;56.50
4103;DHT22;2065;49.790;9.620;2023-02-15T12:47:02;7.40;56.40
4103;DHT22;2065;49.790;9.620;2023-02-15T12:49:30;7.30;56.60
4103;DHT22;2065;49.790;9.620;2023-02-15T12:51:59;7.20;57.10
4103;DHT22;2065;49.790;9.620;2023-02-15T12:54:37;7.30;57.60
4103;DHT22;2065;49.790;9.620;2023-02-15T12:57:30;7.40;57.00
4103;DHT22;2065;49.790;9.620;2023-02-15T12:59:58;7.40;57.30
4103;DHT22;2065;49.790;9.620;2023-02-15T13:02:30;7.50;56.80
4103;DHT22;2065;49.790;9.620;2023-02-15T13:05:14;7.70;56.40
4103;DHT22;2065;49.790;9.620;2023-02-15T13:07:50;7.80;56.10
4103;DHT22;2065;49.790;9.620;2023-02-15T13:10:23;7.40;56.50
4103;DHT22;2065;49.790;9.620;2023-02-15T13:12:52;7.30;57.10
4103;DHT22;2065;49.790;9.620;2023-02-15T13:15:34;7.50;57.40
4103;DHT22;2065;49.790;9.620;2023-02-15T13:18:05;7.60;57.00
4103;DHT22;2065;49.790;9.620;2023-02-15T13:20:37;7.80;56.50
4103;DHT22;2065;49.790;9.620;2023-02-15T13:23:11;7.70;56.30
4103;DHT22;2065;49.790;9.620;2023-02-15T13:25:44;7.40;57.40
4103;DHT22;2065;49.790;9.620;2023-02-15T13:28:18;7.20;57.70
4103;DHT22;2065;49.790;9.620;2023-02-15T13:30:48;7.30;57.80
4103;DHT22;2065;49.790;9.620;2023-02-15T13:33:21;7.20;57.50
4103;DHT22;2065;49.790;9.620;2023-02-15T13:35:59;7.30;57.90
4103;DHT22;2065;49.790;9.620;2023-02-15T13:38:45;7.50;57.00
4103;DHT22;2065;49.790;9.620;2023-02-15T13:41:15;7.70;56.90
4103;DHT22;2065;49.790;9.620;2023-02-15T13:43:50;8.00;56.80
4103;DHT22;2065;49.790;9.620;2023-02-15T13:46:27;8.20;56.10
4103;DHT22;2065;49.790;9.620;2023-02-15T13:49:13;8.20;56.10
4103;DHT22;2065;49.790;9.620;2023-02-15T13:51:46;8.20;55.50
4103;DHT22;2065;49.790;9.620;2023-02-15T13:54:33;8.10;55.30
4103;DHT22;2065;49.790;9.620;2023-02-15T13:57:23;7.90;55.90
4103;DHT22;2065;49.790;9.620;2023-02-15T14:00:01;8.00;56.20
4103;DHT22;2065;49.790;9.620;2023-02-15T14:02:58;8.00;55.50
4103;DHT22;2065;49.790;9.620;2023-02-15T14:05:36;7.90;56.30
4103;DHT22;2065;49.790;9.620;2023-02-15T14:08:11;7.80;56.20
4103;DHT22;2065;49.790;9.620;2023-02-15T14:10:46;7.20;57.40
4103;DHT22;2065;49.790;9.620;2023-02-15T14:13:39;7.20;58.40
4103;DHT22;2065;49.790;9.620;2023-02-15T14:16:15;7.40;58.00
4103;DHT22;2065;49.790;9.620;2023-02-15T14:18:51;7.50;57.30
4103;DHT22;2065;49.790;9.620;2023-02-15T14:21:30;7.50;57.20
4103;DHT22;2065;49.790;9.620;2023-02-15T14:24:09;7.50;57.90
4103;DHT22;2065;49.790;9.620;2023-02-15T14:26:45;7.50;57.60
4103;DHT22;2065;49.790;9.620;2023-02-15T14:29:20;7.60;57.40
4103;DHT22;2065;49.790;9.620;2023-02-15T14:31:55;7.60;57.30
4103;DHT22;2065;49.790;9.620;2023-02-15T14:34:26;7.80;58.10
4103;DHT22;2065;49.790;9.620;2023-02-15T14:36:56;7.90;56.70
4103;DHT22;2065;49.790;9.620;2023-02-15T14:39:30;7.60;57.00
4103;DHT22;2065;49.790;9.620;2023-02-15T14:42:21;7.30;57.80
4103;DHT22;2065;49.790;9.620;2023-02-15T14:44:57;7.20;58.40
4103;DHT22;2065;49.790;9.620;2023-02-15T14:47:30;7.20;58.60
4103;DHT22;2065;49.790;9.620;2023-02-15T14:49:58;7.40;58.70
4103;DHT22;2065;49.790;9.620;2023-02-15T14:52:27;7.70;57.80
4103;DHT22;2065;49.790;9.620;2023-02-15T14:54:55;7.50;57.90
4103;DHT22;2065;49.790;9.620;2023-02-15T14:57:41;7.90;57.50
4103;DHT22;2065;49.790;9.620;2023-02-15T15:00:32;7.80;57.30
4103;DHT22;2065;49.790;9.620;2023-02-15T15:03:00;8.10;56.90
4103;DHT22;2065;49.790;9.620;2023-02-15T15:05:33;7.90;56.40
4103;DHT22;2065;49.790;9.620;2023-02-15T15:08:03;7.70;57.50
4103;DHT22;2065;49.790;9.620;2023-02-15T15:10:42;7.90;57.50
4103;DHT22;2065;49.790;9.620;2023-02-15T15:13:38;8.10;56.90
4103;DHT22;2065;49.790;9.620;2023-02-15T15:19:09;8.00;56.70
4103;DHT22;2065;49.790;9.620;2023-02-15T15:21:56;7.70;57.20
4103;DHT22;2065;49.790;9.620;2023-02-15T15:24:53;7.40;58.10
4103;DHT22;2065;49.790;9.620;2023-02-15T15:27:49;7.30;58.40
4103;DHT22;2065;49.790;9.620;2023-02-15T15:30:46;7.20;58.80
4103;DHT22;2065;49.790;9.620;2023-02-15T15:33:25;7.20;58.90
4103;DHT22;2065;49.790;9.620;2023-02-15T15:36:09;7.00;59.60
4103;DHT22;2065;49.790;9.620;2023-02-15T15:38:49;7.00;59.50
4103;DHT22;2065;49.790;9.620;2023-02-15T15:41:32;7.10;59.50
4103;DHT22;2065;49.790;9.620;2023-02-15T15:47:18;7.40;58.50
4103;DHT22;2065;49.790;9.620;2023-02-15T15:49:48;7.30;58.50
4103;DHT22;2065;49.790;9.620;2023-02-15T15:52:16;7.40;58.60
4103;DHT22;2065;49.790;9.620;2023-02-15T15:54:44;7.70;58.20
4103;DHT22;2065;49.790;9.620;2023-02-15T15:57:17;7.70;57.60
4103;DHT22;2065;49.790;9.620;2023-02-15T15:59:46;7.70;57.80
4103;DHT22;2065;49.790;9.620;2023-02-15T16:02:15;7.60;57.90
4103;DHT22;2065;49.790;9.620;2023-02-15T16:04:43;7.40;58.00
4103;DHT22;2065;49.790;9.620;2023-02-15T16:07:23;7.50;58.30
4103;DHT22;2065;49.790;9.620;2023-02-15T16:09:55;7.50;57.90
4103;DHT22;2065;49.790;9.620;2023-02-15T16:12:25;7.50;58.10
4103;DHT22;2065;49.790;9.620;2023-02-15T16:14:52;7.50;58.40
4103;DHT22;2065;49.790;9.620;2023-02-15T16:17:23;7.60;58.10
4103;DHT22;2065;49.790;9.620;2023-02-15T16:19:51;7.70;57.70
4103;DHT22;2065;49.790;9.620;2023-02-15T16:22:21;7.90;57.50
4103;DHT22;2065;49.790;9.620;2023-02-15T16:27:41;7.70;57.50
4103;DHT22;2065;49.790;9.620;2023-02-15T16:30:27;7.50;57.50
4103;DHT22;2065;49.790;9.620;2023-02-15T16:32:55;7.40;57.80
4103;DHT22;2065;49.790;9.620;2023-02-15T16:35:29;7.10;58.20
4103;DHT22;2065;49.790;9.620;2023-02-15T16:37:56;7.00;59.40
4103;DHT22;2065;49.790;9.620;2023-02-15T16:40:38;7.40;58.90
4103;DHT22;2065;49.790;9.620;2023-02-15T16:43:13;7.60;58.00
4103;DHT22;2065;49.790;9.620;2023-02-15T16:45:41;7.80;57.90
4103;DHT22;2065;49.790;9.620;2023-02-15T16:48:14;7.90;57.10
4103;DHT22;2065;49.790;9.620;2023-02-15T16:50:48;7.60;57.50
4103;DHT22;2065;49.790;9.620;2023-02-15T16:53:19;7.60;57.80
4103;DHT22;2065;49.790;9.620;2023-02-15T16:55:50;7.70;57.90
4103;DHT22;2065;49.790;9.620;2023-02-15T16:58:25;7.90;57.30
4103;DHT22;2065;49.790;9.620;2023-02-15T17:00:56;7.80;57.10
4103;DHT22;2065;49.790;9.620;2023-02-15T17:03:24;7.70;57.70
4103;DHT22;2065;49.790;9.620;2023-02-15T17:05:53;7.40;58.20